sensor_id;sensor_type;location;lat;lon;timestamp;temperature;humidity
11538;DHT22;50159;49.426;11.182;2024-01-15T00:00:21;-3.70;99.90
11538;DHT22;50159;49.426;11.182;2024-01-15T00:02:48;-3.70;99.90
11538;DHT22;50159;49.426;11.182;2024-01-15T00:05:15;-3.70;99.90
11538;DHT22;50159;49.426;11.182;2024-01-15T00:07:42;-3.70;99.90
11538;DHT22;50159;49.426;11.182;2024-01-15T00:10:09;-3.70;99.90
11538;DHT22;50159;49.426;11.182;2024-01-15T00:12:35;-3.70;99.90
11538;DHT22;50159;49.426;11.182;2024-01-15T00:15:03;-3.70;99.90
11538;DHT22;50159;49.426;11.182;2024-01-15T00:17:31;-3.70;99.90
11538;DHT22;50159;49.426;11.182;2024-01-15T00:19:58;-3.70;99.90
11538;DHT22;50159;49.426;11.182;2024-01-15T00:22:26;-3.70;99.90
11538;DHT22;50159;49.426;11.182;2024-01-15T00:24:57;-3.70;99.90
11538;DHT22;50159;49.426;11.182;2024-01-15T00:27:24;-3.70;99.90
11538;DHT22;50159;49.426;11.182;2024-01-15T00:29:51;-3.70;99.90
11538;DHT22;50159;49.426;11.182;2024-01-15T00:32:18;-3.70;99.90
11538;DHT22;50159;49.426;11.182;2024-01-15T00:34:46;-3.70;99.90
11538;DHT22;50159;49.426;11.182;2024-01-15T00:37:13;-3.70;99.90
11538;DHT22;50159;49.426;11.182;2024-01-15T00:39:40;-3.80;99.90
11538;DHT22;50159;49.426;11.182;2024-01-15T00:42:07;-3.80;99.90
11538;DHT22;50159;49.426;11.182;2024-01-15T00:44:34;-3.90;99.90
11538;DHT22;50159;49.426;11.182;2024-01-15T00:47:01;-3.90;99.90
11538;DHT22;50159;49.426;11.182;2024-01-15T00:49:28;-3.80;99.90
11538;DHT22;50159;49.426;11.182;2024-01-15T00:51:55;-3.80;99.90
11538;DHT22;50159;49.426;11.182;2024-01-15T00:54:22;-3.80;99.90
11538;DHT22;50159;49.426;11.182;2024-01-15T00:56:49;-3.80;99.90
11538;DHT22;50159;49.426;11.182;2024-01-15T00:59:16;-3.80;99.90
11538;DHT22;50159;49.426;11.182;2024-01-15T01:01:43;-3.80;99.90
11538;DHT22;50159;49.426;11.182;2024-01-15T01:04:10;-3.80;99.90
11538;DHT22;50159;49.426;11.182;2024-01-15T01:06:38;-3.80;99.90
11538;DHT22;50159;49.426;11.182;2024-01-15T01:09:05;-3.80;99.90
11538;DHT22;50159;49.426;11.182;2024-01-15T01:11:32;-3.80;99.90
11538;DHT22;50159;49.426;11.182;2024-01-15T01:13:58;-3.80;99.90
11538;DHT22;50159;49.426;11.182;2024-01-15T01:16:25;-3.70;99.90
11538;DHT22;50159;49.426;11.182;2024-01-15T01:18:52;-3.70;99.90
11538;DHT22;50159;49.426;11.182;2024-01-15T01:21:19;-3.70;99.90
11538;DHT22;50159;49.426;11.182;2024-01-15T01:23:46;-3.70;99.90
11538;DHT22;50159;49.426;11.182;2024-01-15T01:26:16;-3.60;99.90
11538;DHT22;50159;49.426;11.182;2024-01-15T01:28:44;-3.60;99.90
11538;DHT22;50159;49.426;11.182;2024-01-15T01:31:11;-3.60;99.90
11538;DHT22;50159;49.426;11.182;2024-01-15T01:33:39;-3.60;99.90
11538;DHT22;50159;49.426;11.182;2024-01-15T01:36:35;-3.60;99.90
11538;DHT22;50159;49.426;11.182;2024-01-15T01:39:01;-3.50;99.90
11538;DHT22;50159;49.426;11.182;2024-01-15T01:41:28;-3.50;99.90
11538;DHT22;50159;49.426;11.182;2024-01-15T01:43:55;-3.50;99.90
11538;DHT22;50159;49.426;11.182;2024-01-15T01:46:22;-3.50;99.90
11538;DHT22;50159;49.426;11.182;2024-01-15T01:48:50;-3.50;99.90
11538;DHT22;50159;49.426;11.182;2024-01-15T01:51:17;-3.50;99.90
11538;DHT22;50159;49.426;11.182;2024-01-15T01:53:45;-3.40;99.90
11538;DHT22;50159;49.426;11.182;2024-01-15T01:56:13;-3.40;99.90
11538;DHT22;50159;49.426;11.182;2024-01-15T01:58:41;-3.40;99.90
11538;DHT22;50159;49.426;11.182;2024-01-15T02:01:08;-3.40;99.90
11538;DHT22;50159;49.426;11.182;2024-01-15T02:03:35;-3.40;99.90
11538;DHT22;50159;49.426;11.182;2024-01-15T02:06:02;-3.30;99.90
11538;DHT22;50159;49.426;11.182;2024-01-15T02:08:30;-3.40;99.90
11538;DHT22;50159;49.426;11.182;2024-01-15T02:10:57;-3.30;99.90
11538;DHT22;50159;49.426;11.182;2024-01-15T02:13:24;-3.30;99.90
11538;DHT22;50159;49.426;11.182;2024-01-15T02:15:50;-3.30;99.90
11538;DHT22;50159;49.426;11.182;2024-01-15T02:18:17;-3.30;99.90
11538;DHT22;50159;49.426;11.182;2024-01-15T02:20:44;-3.30;99.90
11538;DHT22;50159;49.426;11.182;2024-01-15T02:23:15;-3.20;99.90
11538;DHT22;50159;49.426;11.182;2024-01-15T02:25:44;-3.20;99.90
11538;DHT22;50159;49.426;11.182;2024-01-15T02:28:14;-3.10;99.90
11538;DHT22;50159;49.426;11.182;2024-01-15T02:30:43;-3.10;99.90
11538;DHT22;50159;49.426;11.182;2024-01-15T02:33:11;-3.10;99.90
11538;DHT22;50159;49.426;11.182;2024-01-15T02:35:39;-3.10;99.90
11538;DHT22;50159;49.426;11.182;2024-01-15T02:38:07;-3.00;99.90
11538;DHT22;50159;49.426;11.182;2024-01-15T02:40:35;-3.00;99.90
11538;DHT22;50159;49.426;11.182;2024-01-15T02:43:02;-3.00;99.90
11538;DHT22;50159;49.426;11.182;2024-01-15T02:45:29;-3.00;99.90
11538;DHT22;50159;49.426;11.182;2024-01-15T02:47:56;-3.00;99.90
11538;DHT22;50159;49.426;11.182;2024-01-15T02:50:23;-3.00;99.90
11538;DHT22;50159;49.426;11.182;2024-01-15T02:52:50;-3.00;99.90
11538;DHT22;50159;49.426;11.182;2024-01-15T02:55:17;-2.90;99.90
11538;DHT22;50159;49.426;11.182;2024-01-15T02:57:44;-2.90;99.90
11538;DHT22;50159;49.426;11.182;2024-01-15T03:00:12;-2.90;99.90
11538;DHT22;50159;49.426;11.182;2024-01-15T03:02:41;-2.90;99.90
11538;DHT22;50159;49.426;11.182;2024-01-15T03:05:13;-2.90;99.90
11538;DHT22;50159;49.426;11.182;2024-01-15T03:07:40;-2.90;99.90
11538;DHT22;50159;49.426;11.182;2024-01-15T03:10:07;-2.90;99.90
11538;DHT22;50159;49.426;11.182;2024-01-15T03:12:35;-2.90;99.90
11538;DHT22;50159;49.426;11.182;2024-01-15T03:15:02;-2.90;99.90
11538;DHT22;50159;49.426;11.182;2024-01-15T03:17:29;-2.90;99.90
11538;DHT22;50159;49.426;11.182;2024-01-15T03:19:56;-2.90;99.90
11538;DHT22;50159;49.426;11.182;2024-01-15T03:22:23;-2.90;99.90
11538;DHT22;50159;49.426;11.182;2024-01-15T03:24:50;-2.90;99.90
11538;DHT22;50159;49.426;11.182;2024-01-15T03:27:16;-2.90;99.90
11538;DHT22;50159;49.426;11.182;2024-01-15T03:29:43;-2.90;99.90
11538;DHT22;50159;49.426;11.182;2024-01-15T03:32:10;-2.90;99.90
11538;DHT22;50159;49.426;11.182;2024-01-15T03:34:37;-2.90;99.90
11538;DHT22;50159;49.426;11.182;2024-01-15T03:37:04;-2.90;99.90
11538;DHT22;50159;49.426;11.182;2024-01-15T03:39:32;-2.90;99.90
11538;DHT22;50159;49.426;11.182;2024-01-15T03:41:59;-2.90;99.90
11538;DHT22;50159;49.426;11.182;2024-01-15T03:44:25;-2.90;99.90
11538;DHT22;50159;49.426;11.182;2024-01-15T03:46:52;-2.80;99.90
11538;DHT22;50159;49.426;11.182;2024-01-15T03:49:19;-2.80;99.90
11538;DHT22;50159;49.426;11.182;2024-01-15T03:51:46;-2.80;99.90
11538;DHT22;50159;49.426;11.182;2024-01-15T03:54:13;-2.80;99.90
11538;DHT22;50159;49.426;11.182;2024-01-15T03:56:42;-2.80;99.90
11538;DHT22;50159;49.426;11.182;2024-01-15T03:59:08;-2.80;99.90
11538;DHT22;50159;49.426;11.182;2024-01-15T04:01:35;-2.70;99.90
11538;DHT22;50159;49.426;11.182;2024-01-15T04:04:02;-2.70;99.90
11538;DHT22;50159;49.426;11.182;2024-01-15T04:06:29;-2.70;99.90
11538;DHT22;50159;49.426;11.182;2024-01-15T04:08:56;-2.70;99.90
11538;DHT22;50159;49.426;11.182;2024-01-15T04:11:23;-2.70;99.90
11538;DHT22;50159;49.426;11.182;2024-01-15T04:13:50;-2.70;99.90
11538;DHT22;50159;49.426;11.182;2024-01-15T04:16:17;-2.70;99.90
11538;DHT22;50159;49.426;11.182;2024-01-15T04:18:44;-2.70;99.90
11538;DHT22;50159;49.426;11.182;2024-01-15T04:21:11;-2.60;99.90
11538;DHT22;50159;49.426;11.182;2024-01-15T04:23:39;-2.60;99.90
11538;DHT22;50159;49.426;11.182;2024-01-15T04:26:06;-2.60;99.90
11538;DHT22;50159;49.426;11.182;2024-01-15T04:28:32;-2.60;99.90
11538;DHT22;50159;49.426;11.182;2024-01-15T04:30:59;-2.50;99.90
11538;DHT22;50159;49.426;11.182;2024-01-15T04:33:26;-2.50;99.90
11538;DHT22;50159;49.426;11.182;2024-01-15T04:35:53;-2.50;99.90
11538;DHT22;50159;49.426;11.182;2024-01-15T04:38:20;-2.40;99.90
11538;DHT22;50159;49.426;11.182;2024-01-15T04:40:47;-2.40;99.90
11538;DHT22;50159;49.426;11.182;2024-01-15T04:43:13;-2.40;99.90
11538;DHT22;50159;49.426;11.182;2024-01-15T04:45:40;-2.40;99.90
11538;DHT22;50159;49.426;11.182;2024-01-15T04:48:07;-2.40;99.90
11538;DHT22;50159;49.426;11.182;2024-01-15T04:50:34;-2.40;99.90
11538;DHT22;50159;49.426;11.182;2024-01-15T04:53:01;-2.40;99.90
11538;DHT22;50159;49.426;11.182;2024-01-15T04:55:28;-2.40;99.90
11538;DHT22;50159;49.426;11.182;2024-01-15T04:57:54;-2.40;99.90
11538;DHT22;50159;49.426;11.182;2024-01-15T05:00:21;-2.40;99.90
11538;DHT22;50159;49.426;11.182;2024-01-15T05:02:48;-2.40;99.90
11538;DHT22;50159;49.426;11.182;2024-01-15T05:05:15;-2.30;99.90
11538;DHT22;50159;49.426;11.182;2024-01-15T05:07:42;-2.20;99.90
11538;DHT22;50159;49.426;11.182;2024-01-15T05:10:09;-2.20;99.90
11538;DHT22;50159;49.426;11.182;2024-01-15T05:12:36;-2.30;99.90
11538;DHT22;50159;49.426;11.182;2024-01-15T05:15:03;-2.20;99.90
11538;DHT22;50159;49.426;11.182;2024-01-15T05:17:30;-2.20;99.90
11538;DHT22;50159;49.426;11.182;2024-01-15T05:19:58;-2.30;99.90
11538;DHT22;50159;49.426;11.182;2024-01-15T05:22:25;-2.30;99.90
11538;DHT22;50159;49.426;11.182;2024-01-15T05:24:52;-2.30;99.90
11538;DHT22;50159;49.426;11.182;2024-01-15T05:27:19;-2.30;99.90
11538;DHT22;50159;49.426;11.182;2024-01-15T05:29:46;-2.30;99.90
11538;DHT22;50159;49.426;11.182;2024-01-15T05:32:13;-2.30;99.90
11538;DHT22;50159;49.426;11.182;2024-01-15T05:34:40;-2.30;99.90
11538;DHT22;50159;49.426;11.182;2024-01-15T05:37:07;-2.30;99.90
11538;DHT22;50159;49.426;11.182;2024-01-15T05:39:34;-2.30;99.90
11538;DHT22;50159;49.426;11.182;2024-01-15T05:42:04;-2.30;99.90
11538;DHT22;50159;49.426;11.182;2024-01-15T05:44:31;-2.20;99.90
11538;DHT22;50159;49.426;11.182;2024-01-15T05:46:58;-2.20;99.90
11538;DHT22;50159;49.426;11.182;2024-01-15T05:49:24;-2.20;99.90
11538;DHT22;50159;49.426;11.182;2024-01-15T05:51:51;-2.20;99.90
11538;DHT22;50159;49.426;11.182;2024-01-15T05:54:19;-2.20;99.90
11538;DHT22;50159;49.426;11.182;2024-01-15T05:56:46;-2.20;99.90
11538;DHT22;50159;49.426;11.182;2024-01-15T05:59:13;-2.10;99.90
11538;DHT22;50159;49.426;11.182;2024-01-15T06:01:41;-2.10;99.90
11538;DHT22;50159;49.426;11.182;2024-01-15T06:04:08;-2.10;99.90
11538;DHT22;50159;49.426;11.182;2024-01-15T06:06:35;-2.10;99.90
11538;DHT22;50159;49.426;11.182;2024-01-15T06:09:02;-2.10;99.90
11538;DHT22;50159;49.426;11.182;2024-01-15T06:11:32;-2.10;99.90
11538;DHT22;50159;49.426;11.182;2024-01-15T06:13:59;-2.00;99.90
11538;DHT22;50159;49.426;11.182;2024-01-15T06:16:29;-2.00;99.90
11538;DHT22;50159;49.426;11.182;2024-01-15T06:18:56;-2.00;99.90
11538;DHT22;50159;49.426;11.182;2024-01-15T06:21:24;-1.90;99.90
11538;DHT22;50159;49.426;11.182;2024-01-15T06:23:51;-1.90;99.90
11538;DHT22;50159;49.426;11.182;2024-01-15T06:26:17;-1.90;99.90
11538;DHT22;50159;49.426;11.182;2024-01-15T06:28:44;-1.90;99.90
11538;DHT22;50159;49.426;11.182;2024-01-15T06:31:12;-1.90;99.90
11538;DHT22;50159;49.426;11.182;2024-01-15T06:33:39;-1.90;99.90
11538;DHT22;50159;49.426;11.182;2024-01-15T06:36:06;-1.90;99.90
11538;DHT22;50159;49.426;11.182;2024-01-15T06:38:34;-1.90;99.90
11538;DHT22;50159;49.426;11.182;2024-01-15T06:41:00;-1.90;99.90
11538;DHT22;50159;49.426;11.182;2024-01-15T06:43:27;-1.80;99.90
11538;DHT22;50159;49.426;11.182;2024-01-15T06:45:54;-1.90;99.90
11538;DHT22;50159;49.426;11.182;2024-01-15T06:48:21;-1.80;99.90
11538;DHT22;50159;49.426;11.182;2024-01-15T06:50:48;-1.90;99.90
11538;DHT22;50159;49.426;11.182;2024-01-15T06:53:15;-1.90;99.90
11538;DHT22;50159;49.426;11.182;2024-01-15T06:55:42;-1.90;99.90
11538;DHT22;50159;49.426;11.182;2024-01-15T06:58:09;-1.90;99.90
11538;DHT22;50159;49.426;11.182;2024-01-15T07:00:36;-2.00;99.90
11538;DHT22;50159;49.426;11.182;2024-01-15T07:03:03;-2.00;99.90
11538;DHT22;50159;49.426;11.182;2024-01-15T07:05:30;-2.00;99.90
11538;DHT22;50159;49.426;11.182;2024-01-15T07:07:57;-2.00;99.90
11538;DHT22;50159;49.426;11.182;2024-01-15T07:10:24;-2.00;99.90
11538;DHT22;50159;49.426;11.182;2024-01-15T07:12:51;-2.00;99.90
11538;DHT22;50159;49.426;11.182;2024-01-15T07:15:18;-2.00;99.90
11538;DHT22;50159;49.426;11.182;2024-01-15T07:17:45;-2.00;99.90
11538;DHT22;50159;49.426;11.182;2024-01-15T07:20:12;-2.00;99.90
11538;DHT22;50159;49.426;11.182;2024-01-15T07:22:39;-2.00;99.90
11538;DHT22;50159;49.426;11.182;2024-01-15T07:25:06;-1.90;99.90
11538;DHT22;50159;49.426;11.182;2024-01-15T07:27:33;-1.90;99.90
11538;DHT22;50159;49.426;11.182;2024-01-15T07:30:00;-1.80;99.90
11538;DHT22;50159;49.426;11.182;2024-01-15T07:32:29;-1.80;99.90
11538;DHT22;50159;49.426;11.182;2024-01-15T07:34:56;-1.80;99.90
11538;DHT22;50159;49.426;11.182;2024-01-15T07:37:23;-1.80;99.90
11538;DHT22;50159;49.426;11.182;2024-01-15T07:39:50;-1.90;99.90
11538;DHT22;50159;49.426;11.182;2024-01-15T07:42:20;-1.90;99.90
11538;DHT22;50159;49.426;11.182;2024-01-15T07:44:51;-1.90;99.90
11538;DHT22;50159;49.426;11.182;2024-01-15T07:47:18;-0.20;99.90
11538;DHT22;50159;49.426;11.182;2024-01-15T07:49:45;-1.80;99.90
11538;DHT22;50159;49.426;11.182;2024-01-15T07:52:12;-2.00;99.90
11538;DHT22;50159;49.426;11.182;2024-01-15T07:54:47;-1.80;99.90
11538;DHT22;50159;49.426;11.182;2024-01-15T07:57:15;-1.80;99.90
11538;DHT22;50159;49.426;11.182;2024-01-15T07:59:42;-1.90;99.90
11538;DHT22;50159;49.426;11.182;2024-01-15T08:02:09;-1.90;99.90
11538;DHT22;50159;49.426;11.182;2024-01-15T08:04:39;-1.90;99.90
11538;DHT22;50159;49.426;11.182;2024-01-15T08:07:06;-1.80;99.90
11538;DHT22;50159;49.426;11.182;2024-01-15T08:09:36;-1.80;99.90
11538;DHT22;50159;49.426;11.182;2024-01-15T08:12:03;-1.70;99.90
11538;DHT22;50159;49.426;11.182;2024-01-15T08:14:32;-1.70;99.90
11538;DHT22;50159;49.426;11.182;2024-01-15T08:16:59;-1.70;99.90
11538;DHT22;50159;49.426;11.182;2024-01-15T08:19:26;-1.70;99.90
11538;DHT22;50159;49.426;11.182;2024-01-15T08:21:53;-1.70;99.90
11538;DHT22;50159;49.426;11.182;2024-01-15T08:24:20;-1.70;99.90
11538;DHT22;50159;49.426;11.182;2024-01-15T08:26:47;-1.70;99.90
11538;DHT22;50159;49.426;11.182;2024-01-15T08:29:14;-1.70;99.90
11538;DHT22;50159;49.426;11.182;2024-01-15T08:31:41;-1.70;99.90
11538;DHT22;50159;49.426;11.182;2024-01-15T08:34:08;-1.60;99.90
11538;DHT22;50159;49.426;11.182;2024-01-15T08:36:35;-1.60;99.90
11538;DHT22;50159;49.426;11.182;2024-01-15T08:39:03;-1.60;99.90
11538;DHT22;50159;49.426;11.182;2024-01-15T08:41:32;-1.50;99.90
11538;DHT22;50159;49.426;11.182;2024-01-15T08:43:59;-1.50;99.90
11538;DHT22;50159;49.426;11.182;2024-01-15T08:46:26;-1.50;99.90
11538;DHT22;50159;49.426;11.182;2024-01-15T08:48:53;-1.40;99.90
11538;DHT22;50159;49.426;11.182;2024-01-15T08:51:20;-1.40;99.90
11538;DHT22;50159;49.426;11.182;2024-01-15T08:53:47;-1.40;99.90
11538;DHT22;50159;49.426;11.182;2024-01-15T08:56:14;-1.40;99.90
11538;DHT22;50159;49.426;11.182;2024-01-15T08:58:41;-1.30;99.90
11538;DHT22;50159;49.426;11.182;2024-01-15T09:01:07;-1.30;99.90
11538;DHT22;50159;49.426;11.182;2024-01-15T09:03:35;-1.30;99.90
11538;DHT22;50159;49.426;11.182;2024-01-15T09:06:03;-1.30;99.90
11538;DHT22;50159;49.426;11.182;2024-01-15T09:08:30;-1.20;99.90
11538;DHT22;50159;49.426;11.182;2024-01-15T09:10:57;-1.20;99.90
11538;DHT22;50159;49.426;11.182;2024-01-15T09:13:24;-1.20;99.90
11538;DHT22;50159;49.426;11.182;2024-01-15T09:15:51;-1.10;99.90
11538;DHT22;50159;49.426;11.182;2024-01-15T09:18:18;-1.10;99.90
11538;DHT22;50159;49.426;11.182;2024-01-15T09:20:45;-1.10;99.90
11538;DHT22;50159;49.426;11.182;2024-01-15T09:23:12;-1.10;99.90
11538;DHT22;50159;49.426;11.182;2024-01-15T09:25:39;-1.00;99.90
11538;DHT22;50159;49.426;11.182;2024-01-15T09:28:06;-1.00;99.90
11538;DHT22;50159;49.426;11.182;2024-01-15T09:30:34;-1.00;99.90
11538;DHT22;50159;49.426;11.182;2024-01-15T09:33:01;-1.00;99.90
11538;DHT22;50159;49.426;11.182;2024-01-15T09:35:28;-0.90;99.90
11538;DHT22;50159;49.426;11.182;2024-01-15T09:37:55;-0.90;99.90
11538;DHT22;50159;49.426;11.182;2024-01-15T09:40:22;-0.90;99.90
11538;DHT22;50159;49.426;11.182;2024-01-15T09:42:50;-0.90;99.90
11538;DHT22;50159;49.426;11.182;2024-01-15T09:45:18;-0.90;99.90
11538;DHT22;50159;49.426;11.182;2024-01-15T09:47:45;-0.80;99.90
11538;DHT22;50159;49.426;11.182;2024-01-15T09:50:13;-0.80;99.90
11538;DHT22;50159;49.426;11.182;2024-01-15T09:52:44;-0.70;99.90
11538;DHT22;50159;49.426;11.182;2024-01-15T09:55:13;-0.60;99.90
11538;DHT22;50159;49.426;11.182;2024-01-15T09:57:44;-0.60;99.90
11538;DHT22;50159;49.426;11.182;2024-01-15T10:00:13;-0.50;99.90
11538;DHT22;50159;49.426;11.182;2024-01-15T10:02:41;-0.50;99.90
11538;DHT22;50159;49.426;11.182;2024-01-15T10:05:08;-0.40;99.90
11538;DHT22;50159;49.426;11.182;2024-01-15T10:07:37;-0.40;99.90
11538;DHT22;50159;49.426;11.182;2024-01-15T10:10:05;-0.40;99.90
11538;DHT22;50159;49.426;11.182;2024-01-15T10:12:34;-0.30;99.90
11538;DHT22;50159;49.426;11.182;2024-01-15T10:15:02;-0.30;99.90
11538;DHT22;50159;49.426;11.182;2024-01-15T10:17:30;-0.30;99.90
11538;DHT22;50159;49.426;11.182;2024-01-15T10:19:57;-0.30;99.90
11538;DHT22;50159;49.426;11.182;2024-01-15T10:22:25;-0.30;99.90
11538;DHT22;50159;49.426;11.182;2024-01-15T10:24:52;-0.40;99.90
11538;DHT22;50159;49.426;11.182;2024-01-15T10:27:19;-0.50;99.90
11538;DHT22;50159;49.426;11.182;2024-01-15T10:29:46;-0.50;99.90
11538;DHT22;50159;49.426;11.182;2024-01-15T10:32:13;-0.60;99.90
11538;DHT22;50159;49.426;11.182;2024-01-15T10:34:40;-0.60;99.90
11538;DHT22;50159;49.426;11.182;2024-01-15T10:37:09;-0.60;99.90
11538;DHT22;50159;49.426;11.182;2024-01-15T10:39:36;-0.70;99.90
11538;DHT22;50159;49.426;11.182;2024-01-15T10:42:05;-0.70;99.90
11538;DHT22;50159;49.426;11.182;2024-01-15T10:44:34;-0.70;99.90
11538;DHT22;50159;49.426;11.182;2024-01-15T10:47:02;-0.70;99.90
11538;DHT22;50159;49.426;11.182;2024-01-15T10:49:29;-0.60;99.90
11538;DHT22;50159;49.426;11.182;2024-01-15T10:52:01;-0.60;99.90
11538;DHT22;50159;49.426;11.182;2024-01-15T10:54:29;-0.60;99.90
11538;DHT22;50159;49.426;11.182;2024-01-15T10:56:57;-0.50;99.90
11538;DHT22;50159;49.426;11.182;2024-01-15T10:59:24;-0.60;99.90
11538;DHT22;50159;49.426;11.182;2024-01-15T11:01:52;-0.60;99.90
11538;DHT22;50159;49.426;11.182;2024-01-15T11:04:22;-0.60;99.90
11538;DHT22;50159;49.426;11.182;2024-01-15T11:06:53;-0.60;99.90
11538;DHT22;50159;49.426;11.182;2024-01-15T11:09:23;-0.70;99.90
11538;DHT22;50159;49.426;11.182;2024-01-15T11:12:07;-0.70;99.90
11538;DHT22;50159;49.426;11.182;2024-01-15T11:14:41;-0.70;99.90
11538;DHT22;50159;49.426;11.182;2024-01-15T11:17:12;-0.70;99.90
11538;DHT22;50159;49.426;11.182;2024-01-15T11:19:50;-0.70;99.90
11538;DHT22;50159;49.426;11.182;2024-01-15T11:25:06;-0.60;99.90
11538;DHT22;50159;49.426;11.182;2024-01-15T11:27:45;-0.60;99.90
11538;DHT22;50159;49.426;11.182;2024-01-15T11:30:19;-0.50;99.90
11538;DHT22;50159;49.426;11.182;2024-01-15T11:32:46;-0.50;99.90
11538;DHT22;50159;49.426;11.182;2024-01-15T11:35:14;-0.50;99.90
11538;DHT22;50159;49.426;11.182;2024-01-15T11:40:19;-0.50;99.90
11538;DHT22;50159;49.426;11.182;2024-01-15T11:42:48;-0.50;99.90
11538;DHT22;50159;49.426;11.182;2024-01-15T11:45:18;-0.60;99.90
11538;DHT22;50159;49.426;11.182;2024-01-15T11:48:10;-0.60;99.90
11538;DHT22;50159;49.426;11.182;2024-01-15T11:50:44;-0.50;99.90
11538;DHT22;50159;49.426;11.182;2024-01-15T11:55:59;-0.50;99.90
11538;DHT22;50159;49.426;11.182;2024-01-15T11:58:28;-0.50;99.90
11538;DHT22;50159;49.426;11.182;2024-01-15T12:00:55;-0.40;99.90
11538;DHT22;50159;49.426;11.182;2024-01-15T12:03:23;-0.30;99.90
11538;DHT22;50159;49.426;11.182;2024-01-15T12:05:54;-0.20;99.90
11538;DHT22;50159;49.426;11.182;2024-01-15T12:08:22;-0.20;99.90
11538;DHT22;50159;49.426;11.182;2024-01-15T12:10:50;-0.10;99.90
11538;DHT22;50159;49.426;11.182;2024-01-15T12:13:17;-0.20;99.90
11538;DHT22;50159;49.426;11.182;2024-01-15T12:15:46;0.20;99.90
11538;DHT22;50159;49.426;11.182;2024-01-15T12:18:17;-0.20;99.90
11538;DHT22;50159;49.426;11.182;2024-01-15T12:20:45;-0.20;99.90
11538;DHT22;50159;49.426;11.182;2024-01-15T12:23:17;-0.20;99.90
11538;DHT22;50159;49.426;11.182;2024-01-15T12:25:45;-0.30;99.90
11538;DHT22;50159;49.426;11.182;2024-01-15T12:28:13;-0.30;99.90
11538;DHT22;50159;49.426;11.182;2024-01-15T12:30:41;-0.40;99.90
11538;DHT22;50159;49.426;11.182;2024-01-15T12:33:08;-0.40;99.90
11538;DHT22;50159;49.426;11.182;2024-01-15T12:35:36;-0.30;99.90
11538;DHT22;50159;49.426;11.182;2024-01-15T12:38:04;-0.30;99.90
11538;DHT22;50159;49.426;11.182;2024-01-15T12:40:32;-0.30;99.90
11538;DHT22;50159;49.426;11.182;2024-01-15T12:43:00;-0.30;99.90
11538;DHT22;50159;49.426;11.182;2024-01-15T12:45:28;-0.30;99.90
11538;DHT22;50159;49.426;11.182;2024-01-15T12:47:56;-0.20;99.90
11538;DHT22;50159;49.426;11.182;2024-01-15T12:50:25;-0.20;99.90
11538;DHT22;50159;49.426;11.182;2024-01-15T12:52:52;-0.20;99.90
11538;DHT22;50159;49.426;11.182;2024-01-15T12:55:19;-0.20;99.90
11538;DHT22;50159;49.426;11.182;2024-01-15T12:57:46;-0.10;99.90
11538;DHT22;50159;49.426;11.182;2024-01-15T13:00:13;-0.10;99.90
11538;DHT22;50159;49.426;11.182;2024-01-15T13:02:42;0.00;99.90
11538;DHT22;50159;49.426;11.182;2024-01-15T13:05:11;0.00;99.90
11538;DHT22;50159;49.426;11.182;2024-01-15T13:07:40;0.00;99.90
11538;DHT22;50159;49.426;11.182;2024-01-15T13:10:08;0.00;99.90
11538;DHT22;50159;49.426;11.182;2024-01-15T13:12:37;0.00;99.90
11538;DHT22;50159;49.426;11.182;2024-01-15T13:15:05;-0.10;99.90
11538;DHT22;50159;49.426;11.182;2024-01-15T13:17:32;-0.10;99.90
11538;DHT22;50159;49.426;11.182;2024-01-15T13:19:59;-0.20;99.90
11538;DHT22;50159;49.426;11.182;2024-01-15T13:22:27;-0.20;99.90
11538;DHT22;50159;49.426;11.182;2024-01-15T13:24:58;-0.30;99.90
11538;DHT22;50159;49.426;11.182;2024-01-15T13:27:26;-0.40;99.90
11538;DHT22;50159;49.426;11.182;2024-01-15T13:29:53;-0.40;99.90
11538;DHT22;50159;49.426;11.182;2024-01-15T13:32:24;-0.40;99.90
11538;DHT22;50159;49.426;11.182;2024-01-15T13:34:59;-0.40;99.90
11538;DHT22;50159;49.426;11.182;2024-01-15T13:37:26;-0.40;99.90
11538;DHT22;50159;49.426;11.182;2024-01-15T13:39:53;-0.50;99.90
11538;DHT22;50159;49.426;11.182;2024-01-15T13:42:21;-0.50;99.90
11538;DHT22;50159;49.426;11.182;2024-01-15T13:44:50;-0.50;99.90
11538;DHT22;50159;49.426;11.182;2024-01-15T13:47:18;-0.50;99.90
11538;DHT22;50159;49.426;11.182;2024-01-15T13:49:45;-0.50;99.90
11538;DHT22;50159;49.426;11.182;2024-01-15T13:52:12;-0.50;99.90
11538;DHT22;50159;49.426;11.182;2024-01-15T13:54:40;-0.50;99.90
11538;DHT22;50159;49.426;11.182;2024-01-15T13:57:16;-0.50;99.90
11538;DHT22;50159;49.426;11.182;2024-01-15T13:59:45;-0.60;99.90
11538;DHT22;50159;49.426;11.182;2024-01-15T14:02:12;-0.60;99.90
11538;DHT22;50159;49.426;11.182;2024-01-15T14:04:43;-0.60;99.90
11538;DHT22;50159;49.426;11.182;2024-01-15T14:07:10;-0.60;99.90
11538;DHT22;50159;49.426;11.182;2024-01-15T14:09:37;-0.60;99.90
11538;DHT22;50159;49.426;11.182;2024-01-15T14:12:05;-0.60;99.90
11538;DHT22;50159;49.426;11.182;2024-01-15T14:14:33;-0.60;99.90
11538;DHT22;50159;49.426;11.182;2024-01-15T14:17:00;-0.60;99.90
11538;DHT22;50159;49.426;11.182;2024-01-15T14:19:26;-0.60;99.90
11538;DHT22;50159;49.426;11.182;2024-01-15T14:21:54;-0.60;99.90
11538;DHT22;50159;49.426;11.182;2024-01-15T14:24:22;-0.50;99.90
11538;DHT22;50159;49.426;11.182;2024-01-15T14:26:48;-0.50;99.90
11538;DHT22;50159;49.426;11.182;2024-01-15T14:29:15;-0.60;99.90
11538;DHT22;50159;49.426;11.182;2024-01-15T14:31:42;-0.60;99.90
11538;DHT22;50159;49.426;11.182;2024-01-15T14:34:09;-0.60;99.90
11538;DHT22;50159;49.426;11.182;2024-01-15T14:36:37;-0.60;99.90
11538;DHT22;50159;49.426;11.182;2024-01-15T14:39:04;-0.60;99.90
11538;DHT22;50159;49.426;11.182;2024-01-15T14:41:31;-0.50;99.90
11538;DHT22;50159;49.426;11.182;2024-01-15T14:43:58;-0.40;99.90
11538;DHT22;50159;49.426;11.182;2024-01-15T14:46:24;-0.40;99.90
11538;DHT22;50159;49.426;11.182;2024-01-15T14:48:53;-0.40;99.90
11538;DHT22;50159;49.426;11.182;2024-01-15T14:51:20;-0.40;99.90
11538;DHT22;50159;49.426;11.182;2024-01-15T14:53:47;-0.40;99.90
11538;DHT22;50159;49.426;11.182;2024-01-15T14:56:14;-0.50;99.90
11538;DHT22;50159;49.426;11.182;2024-01-15T14:58:44;-0.50;99.90
11538;DHT22;50159;49.426;11.182;2024-01-15T15:01:11;-0.60;99.90
11538;DHT22;50159;49.426;11.182;2024-01-15T15:03:39;-0.60;99.90
11538;DHT22;50159;49.426;11.182;2024-01-15T15:06:06;-0.60;99.90
11538;DHT22;50159;49.426;11.182;2024-01-15T15:08:38;-0.70;99.90
11538;DHT22;50159;49.426;11.182;2024-01-15T15:11:06;-0.70;99.90
11538;DHT22;50159;49.426;11.182;2024-01-15T15:13:33;-0.70;99.90
11538;DHT22;50159;49.426;11.182;2024-01-15T15:16:11;-0.70;99.90
11538;DHT22;50159;49.426;11.182;2024-01-15T15:18:41;-0.70;99.90
11538;DHT22;50159;49.426;11.182;2024-01-15T15:21:13;-0.60;99.90
11538;DHT22;50159;49.426;11.182;2024-01-15T15:23:40;-0.60;99.90
11538;DHT22;50159;49.426;11.182;2024-01-15T15:26:06;-0.60;99.90
11538;DHT22;50159;49.426;11.182;2024-01-15T15:28:33;-0.70;99.90